Time;durP1;ratioP1;P1;durP2;ratioP2;P2;SDS_P1;SDS_P2;PMS_P1;PMS_P2;Temp;Humidity;BMP_temperature;BMP_pressure;BME280_temperature;BME280_humidity;BME280_pressure;Samples;Min_cycle;Max_cycle;Signal;HPM_P1;HPM_P2
2020/12/20 00:00:55;;;;;;;10.48;5.68;;;8.50;95.60;;;;;;4993556;28;20106;-88
2020/12/20 00:03:20;;;;;;;10.05;5.72;;;8.40;95.60;;;;;;4992974;28;20030;-89
2020/12/20 00:05:46;;;;;;;11.18;6.30;;;8.50;95.60;;;;;;4993396;28;20034;-88
2020/12/20 00:08:11;;;;;;;10.07;5.63;;;8.50;95.70;;;;;;4986705;28;20086;-90
2020/12/20 00:10:37;;;;;;;8.60;5.57;;;8.50;95.60;;;;;;5006906;28;20033;-89
2020/12/20 00:13:03;;;;;;;9.23;5.28;;;8.60;95.60;;;;;;5007332;28;20022;-86
2020/12/20 00:15:28;;;;;;;10.88;5.18;;;8.60;95.50;;;;;;4991925;28;20038;-88
2020/12/20 00:17:54;;;;;;;9.68;5.25;;;8.60;95.50;;;;;;4990145;28;20034;-88
2020/12/20 00:20:20;;;;;;;11.30;5.32;;;8.60;95.50;;;;;;4990826;28;20023;-89
2020/12/20 00:22:46;;;;;;;9.77;5.68;;;8.60;95.50;;;;;;4992804;28;20368;-89
2020/12/20 00:25:12;;;;;;;9.55;5.63;;;8.60;95.50;;;;;;4993092;28;20038;-89
2020/12/20 00:27:38;;;;;;;8.60;4.85;;;8.60;95.50;;;;;;4988035;28;20026;-88
2020/12/20 00:30:06;;;;;;;8.60;5.22;;;8.60;95.50;;;;;;4981784;28;20491;-87
2020/12/20 00:32:32;;;;;;;9.85;4.63;;;8.60;95.50;;;;;;4985149;28;20073;-89
2020/12/20 00:34:57;;;;;;;7.47;4.05;;;8.60;95.50;;;;;;4992604;28;20046;-89
2020/12/20 00:37:23;;;;;;;8.82;4.60;;;8.60;95.40;;;;;;4992528;28;20026;-86
2020/12/20 00:39:49;;;;;;;8.10;4.47;;;8.60;95.40;;;;;;4993395;28;20470;-89
2020/12/20 00:42:15;;;;;;;11.27;4.78;;;8.60;95.40;;;;;;4993833;28;20057;-89
2020/12/20 00:44:40;;;;;;;10.13;4.85;;;8.60;95.40;;;;;;4989049;28;20407;-90
2020/12/20 00:47:06;;;;;;;12.35;4.97;;;8.60;95.40;;;;;;4978482;28;20100;-89
2020/12/20 00:49:33;;;;;;;8.20;4.30;;;8.60;95.40;;;;;;4989723;28;20034;-87
2020/12/20 00:52:04;;;;;;;20.83;4.97;;;8.60;95.40;;;;;;4992778;28;20034;-88
2020/12/20 00:54:29;;;;;;;9.70;4.43;;;8.50;95.40;;;;;;4986599;28;20027;-87
2020/12/20 00:56:56;;;;;;;11.60;4.32;;;8.60;95.40;;;;;;4991907;28;20521;-87
2020/12/20 00:59:21;;;;;;;7.65;4.35;;;8.60;95.50;;;;;;4991262;28;20027;-88
2020/12/20 01:01:47;;;;;;;10.38;4.13;;;8.50;95.40;;;;;;4988292;28;20035;-88
2020/12/20 01:04:13;;;;;;;9.90;4.78;;;8.50;95.40;;;;;;4973602;28;20027;-88
2020/12/20 01:06:38;;;;;;;9.82;4.53;;;8.50;95.40;;;;;;4990256;28;20036;-88
2020/12/20 01:09:06;;;;;;;7.55;3.60;;;8.50;95.30;;;;;;4993097;28;20069;-88
2020/12/20 01:11:32;;;;;;;10.38;4.50;;;8.40;95.40;;;;;;4993036;28;20062;-88
2020/12/20 01:13:58;;;;;;;10.02;3.83;;;8.50;95.50;;;;;;4994305;28;20027;-89
2020/12/20 01:16:25;;;;;;;7.40;3.88;;;8.50;95.50;;;;;;4995462;28;20061;-88
2020/12/20 01:18:54;;;;;;;10.80;4.30;;;8.50;95.50;;;;;;4986515;28;20035;-88
2020/12/20 01:21:20;;;;;;;9.07;4.50;;;8.50;95.50;;;;;;4976097;28;20504;-88
2020/12/20 01:23:45;;;;;;;8.98;4.30;;;8.50;95.50;;;;;;4989002;28;20106;-88
2020/12/20 01:26:11;;;;;;;9.35;4.25;;;8.50;95.50;;;;;;4985409;28;20070;-88
2020/12/20 01:28:37;;;;;;;9.60;3.70;;;8.50;95.50;;;;;;4993604;28;20026;-88
2020/12/20 01:31:04;;;;;;;7.78;3.80;;;8.50;95.50;;;;;;4995608;28;20445;-88
2020/12/20 01:33:30;;;;;;;9.80;4.28;;;8.50;95.50;;;;;;4976752;28;20027;-88
2020/12/20 01:35:55;;;;;;;9.65;4.85;;;8.50;95.50;;;;;;4982397;28;20526;-88
2020/12/20 01:38:21;;;;;;;9.27;4.05;;;8.50;95.50;;;;;;4995163;28;20034;-88
2020/12/20 01:40:54;;;;;;;7.20;3.45;;;8.50;95.50;;;;;;4981032;28;20484;-88
2020/12/20 01:43:20;;;;;;;;;;;8.60;95.50;;;;;;4978552;28;20050;-88
2020/12/20 01:45:46;;;;;;;12.40;3.55;;;8.60;95.50;;;;;;4991695;28;19954;-88
2020/12/20 01:48:13;;;;;;;8.20;3.38;;;8.60;95.50;;;;;;4992599;28;20426;-90
2020/12/20 01:50:38;;;;;;;7.63;3.55;;;8.60;95.50;;;;;;4976388;28;20037;-89
2020/12/20 01:53:05;;;;;;;9.27;3.50;;;8.60;95.50;;;;;;4982356;28;20026;-89
2020/12/20 01:55:31;;;;;;;9.73;3.55;;;8.60;95.40;;;;;;4996223;28;20478;-89
2020/12/20 01:57:57;;;;;;;8.32;3.53;;;8.60;95.40;;;;;;4995211;28;20019;-89
2020/12/20 02:00:23;;;;;;;6.72;2.75;;;8.60;95.40;;;;;;4980643;28;20033;-89
2020/12/20 02:02:48;;;;;;;9.35;3.55;;;8.60;95.40;;;;;;4990311;28;20027;-89
2020/12/20 02:05:14;;;;;;;8.45;3.28;;;8.70;95.40;;;;;;4988645;28;20132;-88
2020/12/20 02:07:40;;;;;;;5.93;3.10;;;8.60;95.30;;;;;;4994162;28;20026;-87
2020/12/20 02:10:06;;;;;;;11.18;2.85;;;8.60;95.40;;;;;;4981461;28;20026;-88
2020/12/20 02:12:31;;;;;;;10.63;3.10;;;8.60;95.30;;;;;;4996707;28;20475;-88
2020/12/20 02:14:57;;;;;;;8.32;2.65;;;8.70;95.30;;;;;;4990367;28;20023;-88
2020/12/20 02:17:22;;;;;;;7.30;2.95;;;8.70;95.30;;;;;;4986903;28;20031;-88
2020/12/20 02:19:48;;;;;;;8.07;2.28;;;8.60;95.30;;;;;;4984036;28;20019;-88
2020/12/20 02:22:14;;;;;;;6.00;2.38;;;8.60;95.20;;;;;;4987499;28;20399;-88
2020/12/20 02:24:40;;;;;;;9.88;3.10;;;8.60;95.30;;;;;;4986142;28;20054;-88
2020/12/20 02:27:06;;;;;;;11.63;3.30;;;8.60;95.30;;;;;;4982839;28;20022;-88
2020/12/20 02:29:33;;;;;;;8.70;2.70;;;8.60;95.30;;;;;;4983598;28;20035;-88
2020/12/20 02:31:59;;;;;;;5.97;2.83;;;8.60;95.30;;;;;;4976338;28;20089;-88
2020/12/20 02:34:25;;;;;;;10.00;3.25;;;8.60;95.30;;;;;;4979524;28;20030;-88
2020/12/20 02:36:50;;;;;;;5.47;2.45;;;8.60;95.30;;;;;;4994737;28;20036;-88
2020/12/20 02:39:16;;;;;;;9.55;3.33;;;8.70;95.30;;;;;;5002237;28;20034;-88
2020/12/20 02:41:42;;;;;;;10.23;4.20;;;8.70;95.30;;;;;;5005861;28;20054;-87
2020/12/20 02:44:07;;;;;;;7.95;2.47;;;8.60;95.30;;;;;;4979452;28;20121;-88
2020/12/20 02:46:33;;;;;;;8.63;2.75;;;8.70;95.20;;;;;;4997122;28;20097;-88
2020/12/20 02:48:58;;;;;;;7.90;2.92;;;8.70;95.20;;;;;;4991720;28;20427;-88
2020/12/20 02:51:24;;;;;;;6.80;2.90;;;8.70;95.20;;;;;;4993871;28;20549;-88
2020/12/20 02:53:50;;;;;;;8.40;2.78;;;8.60;95.20;;;;;;4983434;28;20026;-89
2020/12/20 02:56:19;;;;;;;6.35;3.25;;;8.60;95.20;;;;;;4985565;28;20057;-88
2020/12/20 02:58:48;;;;;;;8.30;3.38;;;8.60;95.20;;;;;;4982862;28;20031;-88
2020/12/20 03:01:14;;;;;;;6.22;2.47;;;8.60;95.20;;;;;;4994879;28;20030;-88
2020/12/20 03:03:40;;;;;;;9.07;3.08;;;8.60;95.20;;;;;;4979346;28;20023;-88
2020/12/20 03:06:05;;;;;;;6.57;2.88;;;8.60;95.20;;;;;;4986189;28;20113;-88
2020/12/20 03:08:31;;;;;;;11.57;3.58;;;8.60;95.20;;;;;;4998622;28;20025;-88
2020/12/20 03:10:56;;;;;;;11.48;2.97;;;8.60;95.20;;;;;;5004624;28;20031;-88
2020/12/20 03:13:22;;;;;;;9.60;3.20;;;8.70;95.20;;;;;;4980859;28;20030;-87
2020/12/20 03:15:47;;;;;;;10.82;2.67;;;8.70;95.20;;;;;;4974740;28;20027;-88
2020/12/20 03:18:13;;;;;;;8.75;3.00;;;8.70;95.20;;;;;;4981073;28;20022;-87
2020/12/20 03:20:38;;;;;;;7.47;2.83;;;8.70;95.20;;;;;;4993583;28;20065;-88
2020/12/20 03:23:04;;;;;;;9.05;3.38;;;8.60;95.10;;;;;;4993598;28;20114;-88
2020/12/20 03:25:31;;;;;;;7.72;2.25;;;8.60;95.10;;;;;;4990918;28;20038;-88
2020/12/20 03:27:57;;;;;;;8.40;3.22;;;8.60;95.10;;;;;;4992207;28;20027;-88
2020/12/20 03:30:23;;;;;;;7.32;2.70;;;8.60;95.10;;;;;;4986483;28;20106;-88
2020/12/20 03:32:48;;;;;;;7.93;2.88;;;8.60;95.10;;;;;;4992079;28;20030;-88
2020/12/20 03:35:14;;;;;;;7.43;3.00;;;8.60;95.10;;;;;;4993615;28;20076;-89
2020/12/20 03:37:51;;;;;;;7.25;2.75;;;8.60;95.20;;;;;;4992075;28;20041;-88
2020/12/20 03:40:18;;;;;;;7.40;2.75;;;8.60;95.10;;;;;;4993748;28;20026;-88
2020/12/20 03:42:46;;;;;;;11.05;3.30;;;8.60;95.20;;;;;;4990164;28;20025;-89
2020/12/20 03:45:12;;;;;;;10.38;3.20;;;8.50;95.10;;;;;;5002391;28;20054;-88
2020/12/20 03:47:38;;;;;;;10.30;3.47;;;8.60;95.20;;;;;;4985649;28;20026;-88
2020/12/20 03:50:03;;;;;;;9.68;3.25;;;8.60;95.10;;;;;;4983762;28;20026;-88
2020/12/20 03:52:29;;;;;;;7.15;2.58;;;8.60;95.20;;;;;;4975285;28;20536;-88
2020/12/20 03:54:54;;;;;;;6.72;2.47;;;8.60;95.10;;;;;;4979879;28;20483;-88
2020/12/20 03:57:20;;;;;;;11.15;3.20;;;8.60;95.10;;;;;;4979395;28;20027;-88
2020/12/20 03:59:45;;;;;;;10.02;2.83;;;8.60;95.10;;;;;;4993582;28;20022;-88
2020/12/20 04:02:11;;;;;;;10.38;2.85;;;8.60;95.10;;;;;;4988761;28;20085;-88
2020/12/20 04:04:36;;;;;;;8.48;2.90;;;8.60;95.10;;;;;;4988811;28;20042;-87
2020/12/20 04:07:02;;;;;;;10.70;2.92;;;8.60;95.20;;;;;;4986683;28;20037;-88
2020/12/20 04:09:27;;;;;;;8.35;2.80;;;8.60;95.20;;;;;;4974362;28;20138;-87
2020/12/20 04:11:53;;;;;;;7.70;2.92;;;8.60;95.10;;;;;;4987515;28;20022;-88
2020/12/20 04:14:18;;;;;;;9.15;2.78;;;8.60;95.10;;;;;;4993434;28;20034;-87
2020/12/20 04:16:44;;;;;;;8.30;2.55;;;8.70;95.20;;;;;;4993654;28;20076;-88
2020/12/20 04:19:09;;;;;;;11.93;2.88;;;8.60;95.10;;;;;;4997673;28;20506;-88
2020/12/20 04:21:35;;;;;;;7.30;3.00;;;8.70;95.40;;;;;;5005965;28;20033;-88
2020/12/20 04:24:00;;;;;;;12.85;2.78;;;8.70;95.20;;;;;;5012988;28;20026;-87
2020/12/20 04:26:26;;;;;;;7.05;2.45;;;8.70;95.10;;;;;;4990364;28;20058;-88
2020/12/20 04:28:51;;;;;;;6.13;2.45;;;8.70;95.10;;;;;;4982626;28;20029;-88
2020/12/20 04:31:17;;;;;;;7.93;2.17;;;8.70;95.10;;;;;;4991220;28;20084;-89
2020/12/20 04:33:42;;;;;;;7.10;2.55;;;8.70;95.10;;;;;;4979214;28;20026;-88
2020/12/20 04:36:08;;;;;;;11.45;3.13;;;8.70;95.00;;;;;;4992809;28;20026;-88
2020/12/20 04:38:34;;;;;;;5.88;2.25;;;8.70;95.10;;;;;;4993189;28;20034;-88
2020/12/20 04:41:01;;;;;;;11.25;3.33;;;8.70;95.10;;;;;;4991146;28;20026;-88
2020/12/20 04:43:26;;;;;;;6.00;2.50;;;8.70;95.10;;;;;;4991725;28;20092;-88
2020/12/20 04:45:53;;;;;;;7.43;3.15;;;8.70;95.00;;;;;;4992153;28;20034;-88
2020/12/20 04:48:20;;;;;;;8.15;2.75;;;8.70;95.00;;;;;;4993512;28;20137;-89
2020/12/20 04:50:47;;;;;;;12.05;3.40;;;8.70;95.00;;;;;;4987461;28;20551;-87
2020/12/20 04:53:13;;;;;;;8.10;2.83;;;8.70;95.00;;;;;;4980086;28;20253;-88
2020/12/20 04:55:39;;;;;;;6.40;2.95;;;8.70;95.00;;;;;;4991459;28;20061;-88
2020/12/20 04:58:05;;;;;;;12.38;2.88;;;8.70;95.00;;;;;;4977836;28;20019;-87
2020/12/20 05:00:31;;;;;;;6.32;2.10;;;8.70;95.00;;;;;;4982722;28;20083;-87
2020/12/20 05:02:57;;;;;;;13.45;2.78;;;8.70;95.00;;;;;;4990693;28;20045;-88
2020/12/20 05:05:23;;;;;;;8.57;2.55;;;8.70;95.00;;;;;;4996576;28;20043;-88
2020/12/20 05:07:50;;;;;;;9.02;2.42;;;8.70;95.00;;;;;;4995694;28;20027;-88
2020/12/20 05:10:16;;;;;;;13.73;2.78;;;8.70;95.00;;;;;;4996857;28;20491;-87
2020/12/20 05:12:44;;;;;;;10.07;2.47;;;8.70;95.00;;;;;;4993600;28;20022;-87
2020/12/20 05:15:21;;;;;;;10.10;2.42;;;8.70;94.90;;;;;;5001569;28;20195;-88
2020/12/20 05:17:46;;;;;;;6.35;2.58;;;8.70;94.90;;;;;;5001326;28;20026;-88
2020/12/20 05:20:35;;;;;;;7.80;2.60;;;8.60;94.90;;;;;;4981571;28;20038;-88
2020/12/20 05:23:01;;;;;;;12.05;3.08;;;8.70;94.90;;;;;;4982435;28;20030;-87
2020/12/20 05:25:29;;;;;;;9.27;2.70;;;8.60;94.90;;;;;;4985982;28;20054;-88
2020/12/20 05:28:18;;;;;;;6.55;2.08;;;8.70;95.00;;;;;;4993093;28;20033;-88
2020/12/20 05:30:45;;;;;;;12.35;2.58;;;8.60;94.90;;;;;;4981273;28;20023;-88
2020/12/20 05:33:25;;;;;;;9.77;2.60;;;8.60;95.00;;;;;;4988360;28;20030;-88
2020/12/20 05:36:03;;;;;;;6.93;2.10;;;8.60;95.00;;;;;;4995938;28;20030;-88
2020/12/20 05:38:29;;;;;;;13.85;3.45;;;8.60;94.90;;;;;;4986785;28;20502;-87
2020/12/20 05:40:55;;;;;;;7.30;2.30;;;8.60;95.00;;;;;;4993858;28;20038;-88
2020/12/20 05:43:25;;;;;;;15.05;2.90;;;8.60;95.00;;;;;;4989632;28;20019;-87
2020/12/20 05:45:52;;;;;;;6.45;2.38;;;8.60;95.00;;;;;;4991393;28;20049;-88
2020/12/20 05:48:24;;;;;;;7.10;2.28;;;8.60;95.00;;;;;;4991195;28;20106;-89
2020/12/20 05:50:59;;;;;;;7.18;2.65;;;8.60;95.00;;;;;;4977562;28;20101;-87
2020/12/20 05:53:25;;;;;;;10.88;2.53;;;8.60;95.00;;;;;;4976396;28;20034;-88
2020/12/20 05:55:53;;;;;;;9.15;2.88;;;8.60;95.00;;;;;;4990812;28;20031;-88
2020/12/20 05:58:19;;;;;;;10.63;1.98;;;8.60;95.00;;;;;;4997594;28;20064;-88
2020/12/20 06:00:45;;;;;;;10.23;2.30;;;8.70;95.00;;;;;;5006566;28;20026;-88
2020/12/20 06:03:11;;;;;;;9.30;2.38;;;8.60;94.90;;;;;;4994007;28;20100;-88
2020/12/20 06:05:42;;;;;;;11.85;2.85;;;8.70;95.00;;;;;;4996098;28;20034;-88
2020/12/20 06:08:10;;;;;;;11.00;2.50;;;8.70;95.00;;;;;;4985739;28;20034;-88
2020/12/20 06:10:41;;;;;;;9.05;2.30;;;8.70;95.00;;;;;;5015761;28;20501;-88
2020/12/20 06:13:10;;;;;;;10.63;2.35;;;8.60;94.90;;;;;;5007665;28;20027;-89
2020/12/20 06:15:38;;;;;;;11.75;2.15;;;8.60;94.90;;;;;;4994270;28;20150;-89
2020/12/20 06:18:13;;;;;;;7.78;2.85;;;8.60;94.90;;;;;;4984162;28;20084;-88
2020/12/20 06:20:59;;;;;;;9.68;2.53;;;8.60;94.90;;;;;;4997788;28;20037;-89
2020/12/20 06:23:32;;;;;;;12.50;3.38;;;8.60;94.90;;;;;;4984429;28;20027;-89
2020/12/20 06:26:00;;;;;;;11.25;2.03;;;8.60;95.00;;;;;;4990967;28;20054;-88
2020/12/20 06:28:28;;;;;;;20.73;2.35;;;8.50;94.90;;;;;;4986746;28;20093;-88
2020/12/20 06:30:54;;;;;;;6.80;2.03;;;8.50;94.90;;;;;;4993340;28;20035;-89
2020/12/20 06:33:24;;;;;;;10.63;2.40;;;8.40;94.90;;;;;;4982234;28;20031;-89
2020/12/20 06:35:51;;;;;;;10.32;2.53;;;8.40;95.00;;;;;;4995103;28;20034;-88
2020/12/20 06:38:21;;;;;;;9.63;2.53;;;8.40;95.00;;;;;;4990100;28;20061;-89
2020/12/20 06:40:47;;;;;;;14.38;2.35;;;8.40;95.10;;;;;;4976659;28;20031;-89
2020/12/20 06:43:14;;;;;;;9.38;2.75;;;8.40;95.00;;;;;;4990984;28;20019;-89
2020/12/20 06:45:46;;;;;;;13.48;2.75;;;8.40;95.00;;;;;;4983848;28;20043;-88
2020/12/20 06:48:13;;;;;;;9.73;2.13;;;8.40;95.00;;;;;;4987892;28;20038;-88
2020/12/20 06:50:38;;;;;;;13.07;3.20;;;8.40;95.00;;;;;;4994709;28;20065;-88
2020/12/20 06:53:08;;;;;;;9.57;2.50;;;8.30;95.00;;;;;;4976648;28;20069;-89
2020/12/20 06:55:34;;;;;;;13.38;2.03;;;8.30;95.00;;;;;;4983246;28;20044;-88
2020/12/20 06:58:06;;;;;;;8.95;2.42;;;8.20;95.10;;;;;;5005716;28;20022;-88
2020/12/20 07:00:39;;;;;;;13.03;3.30;;;8.30;95.10;;;;;;4995456;28;20038;-88
2020/12/20 07:03:04;;;;;;;;;;;8.30;95.10;;;;;;4991924;28;20342;-87
2020/12/20 07:05:41;;;;;;;11.20;2.15;;;8.20;95.10;;;;;;4990598;28;19921;-87
2020/12/20 07:08:09;;;;;;;11.55;2.42;;;8.20;95.20;;;;;;4982160;28;20027;-87
2020/12/20 07:10:49;;;;;;;6.75;2.30;;;8.20;95.20;;;;;;4988164;28;20026;-87
2020/12/20 07:13:16;;;;;;;9.88;2.38;;;8.20;95.20;;;;;;4989941;28;20061;-87
2020/12/20 07:15:51;;;;;;;10.55;2.30;;;8.20;95.20;;;;;;4998085;28;20068;-87
2020/12/20 07:18:48;;;;;;;10.38;2.60;;;8.20;95.20;;;;;;4994544;28;20065;-87
2020/12/20 07:21:23;;;;;;;14.48;2.83;;;8.20;95.20;;;;;;4985515;28;20023;-87
2020/12/20 07:23:52;;;;;;;12.20;3.67;;;8.20;95.20;;;;;;4984807;28;20057;-88
2020/12/20 07:26:20;;;;;;;9.43;2.65;;;8.20;95.30;;;;;;4993091;28;20495;-87
2020/12/20 07:28:47;;;;;;;13.45;1.88;;;8.20;95.30;;;;;;4985129;28;20467;-88
2020/12/20 07:31:17;;;;;;;9.05;1.92;;;8.10;95.30;;;;;;4992139;28;20022;-88
2020/12/20 07:33:43;;;;;;;13.05;2.40;;;8.10;95.30;;;;;;4988743;28;20027;-88
2020/12/20 07:36:08;;;;;;;10.70;2.60;;;8.10;95.60;;;;;;4985225;28;20460;-87
2020/12/20 07:38:34;;;;;;;8.93;2.33;;;8.10;95.40;;;;;;4983929;28;20014;-88
2020/12/20 07:41:00;;;;;;;11.13;1.85;;;8.10;95.30;;;;;;4982870;28;20038;-87
2020/12/20 07:43:25;;;;;;;7.88;1.67;;;8.10;95.40;;;;;;4989367;28;20047;-89
2020/12/20 07:45:58;;;;;;;9.43;2.88;;;8.10;95.40;;;;;;4978160;28;20224;-88
2020/12/20 07:48:28;;;;;;;10.18;2.55;;;8.10;95.40;;;;;;4978564;28;20101;-89
2020/12/20 07:51:10;;;;;;;8.45;1.80;;;8.10;95.40;;;;;;4981153;28;20061;-89
2020/12/20 07:53:50;;;;;;;8.73;1.70;;;8.00;95.30;;;;;;4989513;28;20168;-89
2020/12/20 07:56:25;;;;;;;9.73;2.30;;;8.10;95.40;;;;;;4995980;28;20022;-89
2020/12/20 07:58:52;;;;;;;9.13;1.75;;;8.00;95.40;;;;;;4996170;28;20035;-88
2020/12/20 08:01:17;;;;;;;13.63;2.33;;;8.00;95.40;;;;;;4981950;28;20030;-88
2020/12/20 08:03:43;;;;;;;7.03;1.90;;;8.00;95.40;;;;;;4979826;28;20031;-88
2020/12/20 08:06:10;;;;;;;13.30;2.72;;;8.00;95.50;;;;;;4990607;28;20513;-89
2020/12/20 08:08:37;;;;;;;10.07;2.30;;;8.00;95.50;;;;;;4985748;28;20490;-87
2020/12/20 08:11:15;;;;;;;10.18;2.03;;;8.00;95.50;;;;;;4982953;28;20039;-88
2020/12/20 08:13:53;;;;;;;7.55;2.28;;;8.00;95.50;;;;;;4979566;28;20037;-89
2020/12/20 08:16:23;;;;;;;8.77;2.42;;;8.00;95.50;;;;;;4989065;28;20049;-88
2020/12/20 08:18:57;;;;;;;14.05;2.42;;;8.00;95.50;;;;;;4982998;28;20030;-88
2020/12/20 08:21:32;;;;;;;9.90;2.00;;;8.00;95.50;;;;;;4997712;28;20057;-88
2020/12/20 08:23:59;;;;;;;13.32;2.00;;;8.10;95.50;;;;;;4989707;28;20041;-89
2020/12/20 08:26:32;;;;;;;9.93;1.92;;;8.10;95.60;;;;;;4983742;28;20042;-88
2020/12/20 08:28:59;;;;;;;12.02;2.20;;;8.10;95.50;;;;;;4990483;28;20057;-89
2020/12/20 08:31:29;;;;;;;13.38;1.67;;;8.10;95.50;;;;;;4985758;28;20053;-89
2020/12/20 08:33:55;;;;;;;9.88;2.28;;;8.10;95.50;;;;;;4989374;28;20104;-88
2020/12/20 08:36:22;;;;;;;12.07;1.70;;;8.20;95.50;;;;;;4986221;28;20039;-89
2020/12/20 08:38:49;;;;;;;12.98;2.13;;;8.20;95.50;;;;;;4981666;28;20027;-89
2020/12/20 08:41:24;;;;;;;16.63;3.17;;;8.20;95.50;;;;;;4986890;28;20443;-89
2020/12/20 08:44:11;;;;;;;8.77;2.80;;;8.30;95.50;;;;;;4985899;28;20046;-89
2020/12/20 08:46:40;;;;;;;8.20;2.15;;;8.30;95.50;;;;;;4985121;28;20499;-89
2020/12/20 08:49:20;;;;;;;9.10;1.90;;;8.30;95.50;;;;;;4990919;28;20037;-89
2020/12/20 08:51:49;;;;;;;14.07;2.60;;;8.30;95.40;;;;;;4974750;28;20029;-86
2020/12/20 08:54:35;;;;;;;15.63;3.47;;;8.40;95.50;;;;;;4982198;28;20046;-88
2020/12/20 08:57:03;;;;;;;11.65;2.65;;;8.50;95.50;;;;;;4983428;28;20039;-88
2020/12/20 08:59:34;;;;;;;8.43;2.08;;;8.50;95.50;;;;;;4990721;28;20030;-88
2020/12/20 09:02:01;;;;;;;13.10;2.75;;;8.50;95.50;;;;;;4973212;28;20498;-89
2020/12/20 09:04:28;;;;;;;13.23;3.33;;;8.60;95.50;;;;;;4986077;28;20034;-88
2020/12/20 09:07:05;;;;;;;18.55;2.55;;;8.60;95.50;;;;;;4983200;28;20479;-88
2020/12/20 09:09:32;;;;;;;13.68;1.75;;;8.80;95.40;;;;;;4997684;28;20030;-89
2020/12/20 09:12:15;;;;;;;12.75;2.30;;;8.90;95.40;;;;;;4991133;28;20038;-89
2020/12/20 09:14:42;;;;;;;10.73;1.58;;;8.90;95.30;;;;;;4990100;28;20104;-88
2020/12/20 09:17:07;;;;;;;7.05;1.50;;;9.00;95.20;;;;;;4991293;28;20019;-89
2020/12/20 09:19:33;;;;;;;13.02;1.90;;;9.00;95.10;;;;;;4979826;28;20038;-89
2020/12/20 09:21:58;;;;;;;15.70;1.75;;;9.10;95.10;;;;;;4982529;28;20027;-89
2020/12/20 09:24:25;;;;;;;12.43;1.75;;;9.10;95.10;;;;;;4995974;28;20483;-90
2020/12/20 09:26:59;;;;;;;6.25;1.35;;;9.20;95.00;;;;;;4991012;28;20034;-89
2020/12/20 09:29:25;;;;;;;15.88;1.70;;;9.20;94.90;;;;;;4988348;28;20049;-89
2020/12/20 09:31:53;;;;;;;15.80;1.67;;;9.20;94.90;;;;;;4991574;28;20033;-89
2020/12/20 09:34:30;;;;;;;13.38;1.80;;;9.30;94.80;;;;;;4991409;28;20455;-89
2020/12/20 09:37:04;;;;;;;8.18;1.95;;;9.30;94.80;;;;;;4995051;28;20109;-90
2020/12/20 09:39:29;;;;;;;10.27;1.27;;;9.40;94.70;;;;;;4982722;28;20532;-90
2020/12/20 09:41:55;;;;;;;16.42;2.03;;;9.30;94.70;;;;;;4985176;28;20027;-89
2020/12/20 09:44:21;;;;;;;13.57;1.77;;;9.40;94.70;;;;;;4991425;28;20046;-88
2020/12/20 09:46:48;;;;;;;18.75;2.22;;;9.40;94.60;;;;;;4980307;28;20034;-87
2020/12/20 09:49:14;;;;;;;14.57;2.60;;;9.40;94.60;;;;;;4986992;28;20015;-88
2020/12/20 09:51:39;;;;;;;9.07;1.60;;;9.50;94.50;;;;;;4992274;28;20027;-88
2020/12/20 09:54:05;;;;;;;9.95;1.33;;;9.50;94.50;;;;;;4991620;28;20022;-88
2020/12/20 09:56:31;;;;;;;14.65;2.50;;;9.50;94.50;;;;;;4985697;28;20491;-88
2020/12/20 09:58:56;;;;;;;13.10;1.52;;;9.50;94.40;;;;;;4984661;28;20022;-88
2020/12/20 10:01:23;;;;;;;14.80;2.33;;;9.50;94.40;;;;;;4985268;28;20029;-87
2020/12/20 10:03:49;;;;;;;18.45;2.15;;;9.50;94.30;;;;;;4993930;28;20121;-88
2020/12/20 10:06:16;;;;;;;12.75;2.28;;;9.60;94.30;;;;;;4988803;28;20046;-89
2020/12/20 10:08:42;;;;;;;12.88;2.40;;;9.50;94.20;;;;;;4990159;28;20026;-88
2020/12/20 10:11:08;;;;;;;11.95;2.45;;;9.60;94.20;;;;;;4989015;28;20117;-89
2020/12/20 10:13:34;;;;;;;10.80;2.42;;;9.50;94.20;;;;;;4981587;28;20483;-89
2020/12/20 10:15:59;;;;;;;11.50;3.00;;;9.50;94.10;;;;;;4984275;28;20034;-90
2020/12/20 10:18:25;;;;;;;17.55;2.65;;;9.60;94.10;;;;;;4984983;28;20038;-89
2020/12/20 10:20:50;;;;;;;10.05;2.58;;;9.60;94.10;;;;;;4989629;28;20431;-89
2020/12/20 10:23:16;;;;;;;15.77;2.38;;;9.50;94.00;;;;;;4987887;28;20014;-89
2020/12/20 10:25:41;;;;;;;17.08;2.55;;;9.50;94.00;;;;;;4985464;28;20113;-88
2020/12/20 10:28:08;;;;;;;15.85;2.47;;;9.50;94.00;;;;;;4977291;28;20031;-89
2020/12/20 10:30:34;;;;;;;12.70;2.92;;;9.40;93.90;;;;;;4988397;28;20105;-89
2020/12/20 10:32:59;;;;;;;12.13;2.30;;;9.40;93.90;;;;;;4990353;28;20029;-88
2020/12/20 10:35:27;;;;;;;16.65;2.55;;;9.40;93.90;;;;;;4977617;28;20476;-89
2020/12/20 10:37:53;;;;;;;14.02;1.75;;;9.40;93.90;;;;;;4985195;28;20615;-89
2020/12/20 10:40:20;;;;;;;14.35;2.10;;;9.40;93.90;;;;;;4984654;28;20038;-90
2020/12/20 10:42:46;;;;;;;12.32;2.53;;;9.40;93.90;;;;;;4991851;28;20077;-89
2020/12/20 10:45:12;;;;;;;12.38;2.63;;;9.40;93.90;;;;;;4986975;28;20047;-89
2020/12/20 10:47:38;;;;;;;11.60;2.15;;;9.40;93.90;;;;;;4982144;28;20450;-89
2020/12/20 10:50:04;;;;;;;12.85;2.22;;;9.40;93.90;;;;;;4985349;28;20061;-88
2020/12/20 10:52:30;;;;;;;11.52;2.20;;;9.40;94.00;;;;;;4988028;28;20029;-88
2020/12/20 10:54:55;;;;;;;17.17;2.22;;;9.30;93.90;;;;;;4989315;28;20031;-89
2020/12/20 10:57:21;;;;;;;18.77;2.80;;;9.40;94.00;;;;;;4979647;28;20014;-88
2020/12/20 10:59:46;;;;;;;12.40;2.40;;;9.40;93.90;;;;;;4987447;28;20081;-89
2020/12/20 11:02:12;;;;;;;16.02;2.40;;;9.40;93.90;;;;;;5000760;28;20367;-88
2020/12/20 11:04:38;;;;;;;13.18;2.63;;;9.50;94.00;;;;;;4985265;28;20387;-89
2020/12/20 11:07:04;;;;;;;13.57;2.13;;;9.60;94.10;;;;;;4980907;28;20026;-89
2020/12/20 11:09:30;;;;;;;14.05;2.53;;;9.80;94.00;;;;;;4980478;28;20105;-89
2020/12/20 11:11:56;;;;;;;13.60;2.30;;;9.90;93.70;;;;;;4992644;28;20109;-89
2020/12/20 11:14:22;;;;;;;10.95;2.08;;;10.10;93.60;;;;;;4976726;28;20185;-89
2020/12/20 11:16:52;;;;;;;12.52;2.30;;;10.20;93.40;;;;;;4988051;28;20026;-88
2020/12/20 11:19:19;;;;;;;16.20;2.95;;;10.40;93.30;;;;;;4986432;28;20033;-88
2020/12/20 11:21:52;;;;;;;14.98;3.08;;;10.50;92.90;;;;;;4984516;28;20032;-89
2020/12/20 11:24:18;;;;;;;;;;;10.60;92.70;;;;;;4990124;28;20046;-88
2020/12/20 11:26:45;;;;;;;19.83;3.08;;;10.60;92.50;;;;;;4995486;28;19924;-89
2020/12/20 11:29:11;;;;;;;17.85;3.55;;;10.60;92.40;;;;;;4992620;28;20550;-88
2020/12/20 11:31:37;;;;;;;20.95;3.10;;;10.70;92.10;;;;;;4996283;28;20019;-88
2020/12/20 11:34:03;;;;;;;19.27;3.30;;;10.70;91.90;;;;;;4990722;28;20101;-88
2020/12/20 11:36:28;;;;;;;15.20;2.88;;;10.70;91.80;;;;;;4986722;28;20045;-88
2020/12/20 11:38:54;;;;;;;14.93;2.75;;;10.70;91.70;;;;;;4993769;28;20041;-88
2020/12/20 11:41:25;;;;;;;16.83;3.33;;;10.70;91.70;;;;;;4990994;28;20037;-87
2020/12/20 11:43:52;;;;;;;14.10;2.95;;;10.70;91.70;;;;;;4989085;28;20058;-88
2020/12/20 11:46:18;;;;;;;16.30;3.95;;;10.80;91.60;;;;;;4991109;28;20110;-88
2020/12/20 11:48:44;;;;;;;16.55;2.83;;;10.80;91.50;;;;;;5003981;28;20101;-88
2020/12/20 11:51:11;;;;;;;14.75;2.70;;;10.80;91.50;;;;;;4987898;28;20030;-87
2020/12/20 11:53:37;;;;;;;14.65;3.00;;;10.90;91.30;;;;;;4975707;28;20034;-87
2020/12/20 11:56:07;;;;;;;16.00;2.97;;;11.00;91.00;;;;;;4974238;28;20026;-90
2020/12/20 11:58:33;;;;;;;19.80;2.47;;;11.00;91.00;;;;;;4990991;28;20027;-87
2020/12/20 12:00:59;;;;;;;19.67;2.95;;;10.90;90.80;;;;;;4991378;28;20041;-87
2020/12/20 12:03:25;;;;;;;15.23;2.50;;;10.90;90.80;;;;;;4989780;28;20110;-89
2020/12/20 12:05:52;;;;;;;18.45;3.42;;;10.80;90.60;;;;;;4985693;28;20049;-89
2020/12/20 12:08:17;;;;;;;11.57;2.40;;;10.90;90.70;;;;;;4992396;28;20027;-89
2020/12/20 12:10:46;;;;;;;15.40;2.72;;;10.90;90.80;;;;;;4983104;28;20026;-89
2020/12/20 12:13:12;;;;;;;10.63;1.85;;;10.90;90.70;;;;;;4989126;28;20113;-88
2020/12/20 12:15:39;;;;;;;14.60;2.92;;;10.90;90.70;;;;;;4993978;28;20018;-87
2020/12/20 12:18:05;;;;;;;12.88;2.15;;;11.00;90.70;;;;;;4992438;28;20034;-88
2020/12/20 12:20:31;;;;;;;14.00;2.40;;;11.00;90.40;;;;;;4984661;28;20065;-89
2020/12/20 12:22:57;;;;;;;14.20;2.30;;;10.90;90.40;;;;;;4993857;28;20487;-88
2020/12/20 12:25:23;;;;;;;11.52;1.98;;;10.90;90.40;;;;;;4989875;28;20491;-88
2020/12/20 12:27:48;;;;;;;17.77;2.47;;;11.00;90.40;;;;;;4982411;28;20434;-89
2020/12/20 12:30:14;;;;;;;19.65;2.55;;;11.00;90.40;;;;;;4974122;28;20050;-89
2020/12/20 12:32:40;;;;;;;17.63;2.20;;;11.00;90.20;;;;;;4980573;28;20050;-88
2020/12/20 12:35:06;;;;;;;17.17;2.13;;;11.10;90.20;;;;;;4985014;28;20023;-89
2020/12/20 12:37:32;;;;;;;12.82;2.50;;;11.00;90.00;;;;;;4989033;28;20026;-89
2020/12/20 12:39:58;;;;;;;16.30;3.08;;;11.00;90.20;;;;;;4992389;28;20621;-88
2020/12/20 12:42:24;;;;;;;14.25;2.17;;;11.00;89.90;;;;;;4994501;28;20065;-87
2020/12/20 12:44:50;;;;;;;13.23;2.17;;;11.00;90.00;;;;;;4990947;28;20046;-88
2020/12/20 12:47:16;;;;;;;13.55;2.30;;;11.00;90.00;;;;;;4992274;28;20031;-89
2020/12/20 12:49:41;;;;;;;16.90;2.80;;;11.00;89.80;;;;;;4973566;28;20085;-89
2020/12/20 12:52:07;;;;;;;12.70;2.13;;;11.00;88.80;;;;;;4992232;28;20116;-89